Terminal Aerodrome Forecast
Issued by NWS El Paso, TX

Home | Current Version | Previous Version | Text Only | Print | Product List | Glossary On
Versions: 1 2 3 4 5 6 7 8 9 10 11 12 13 14 15 16
514
FTUS44 KEPZ 272340
TAFELP
TAF
KELP 272340Z 2800/2824 09007KT P6SM VCTS SCT060CB BKN100 BKN250
     FM280600 01012KT P6SM SCT070 BKN250
     FM281200 33011KT P6SM FEW070 SCT250
     FM281800 26007KT P6SM FEW070 FEW250=

USA.gov is the U.S. government's official web portal to all federal, state and local government web resources and services.